Time;durP1;ratioP1;P1;durP2;ratioP2;P2;SDS_P1;SDS_P2;PMS_P1;PMS_P2;Temp;Humidity;BMP_temperature;BMP_pressure;BME280_temperature;BME280_humidity;BME280_pressure;Samples;Min_cycle;Max_cycle;Signal;HPM_P1;HPM_P2
2021/01/03 00:00:29;;;;;;;159.78;95.80;;;;;;;4.41;80.24;100113.02;2742670;85;21174;-72
2021/01/03 00:05:00;;;;;;;154.97;97.02;;;;;;;4.43;80.30;100119.06;2740901;85;21177;-71
2021/01/03 00:09:05;;;;;;;157.30;93.87;;;;;;;4.41;80.21;100117.83;2854306;82;21168;-72
2021/01/03 00:13:08;;;;;;;163.00;97.60;;;;;;;4.42;80.25;100116.89;2855745;82;21133;-72
2021/01/03 00:17:12;;;;;;;169.43;100.27;;;;;;;4.40;80.18;100111.32;2842735;82;21188;-72
2021/01/03 00:21:17;;;;;;;167.72;102.17;;;;;;;4.41;80.20;100112.56;2855506;82;21124;-71
2021/01/03 00:25:24;;;;;;;159.80;96.87;;;;;;;4.36;80.19;100096.64;2855462;82;21172;-71
2021/01/03 00:29:27;;;;;;;163.47;100.00;;;;;;;4.34;80.55;100104.66;2855808;82;21619;-72
2021/01/03 00:33:31;;;;;;;149.60;93.40;;;;;;;4.36;80.57;100102.78;2856059;82;21165;-73
2021/01/03 00:37:39;;;;;;;161.43;98.62;;;;;;;4.37;80.48;100099.20;2867968;82;21142;-72
2021/01/03 00:41:51;;;;;;;173.97;100.90;;;;;;;4.36;80.68;100092.24;2843227;83;21143;-71
2021/01/03 00:45:56;;;;;;;162.15;102.58;;;;;;;4.38;80.62;100091.67;2827132;83;21723;-73
2021/01/03 00:49:59;;;;;;;154.25;96.95;;;;;;;4.36;80.70;100093.55;2842495;83;21625;-72
2021/01/03 00:54:03;;;;;;;175.93;98.67;;;;;;;4.36;80.64;100088.29;2827333;84;21201;-72
2021/01/03 00:58:08;;;;;;;160.78;96.12;;;;;;;4.36;80.86;100096.19;2827075;84;21150;-72
2021/01/03 01:02:14;;;;;;;165.47;101.12;;;;;;;4.39;80.84;100108.31;2827964;84;21168;-72
2021/01/03 01:06:20;;;;;;;163.57;100.27;;;;;;;4.37;80.78;100108.88;2843534;83;21149;-71
2021/01/03 01:10:27;;;;;;;150.72;94.32;;;;;;;4.32;80.96;100093.81;2827707;84;21194;-72
2021/01/03 01:14:32;;;;;;;168.37;103.12;;;;;;;4.34;81.09;100090.17;2806364;84;21640;-72
2021/01/03 01:18:36;;;;;;;177.30;105.20;;;;;;;4.33;81.12;100095.06;2788898;84;22231;-72
2021/01/03 01:22:41;;;;;;;151.20;93.60;;;;;;;4.37;81.12;100104.92;2806245;84;21190;-71
2021/01/03 01:26:44;;;;;;;189.37;108.63;;;;;;;4.36;81.21;100102.78;2806338;84;21167;-72
2021/01/03 01:30:50;;;;;;;165.73;104.63;;;;;;;4.47;81.37;100096.01;2806583;84;21166;-71
2021/01/03 01:34:53;;;;;;;188.82;105.90;;;;;;;4.51;81.01;100097.52;2806127;84;21175;-73
2021/01/03 01:38:56;;;;;;;205.15;114.08;;;;;;;4.57;81.18;100099.80;2806626;84;21154;-71
2021/01/03 01:42:59;;;;;;;191.62;105.17;;;;;;;4.66;80.97;100097.09;2806447;84;21158;-71
2021/01/03 01:47:13;;;;;;;182.72;101.55;;;;;;;4.65;80.57;100092.77;2805446;84;21655;-71
2021/01/03 01:51:27;;;;;;;176.20;102.62;;;;;;;4.63;80.58;100078.34;2798122;84;21188;-73
2021/01/03 01:55:36;;;;;;;176.22;103.75;;;;;;;4.68;80.57;100085.98;2797851;84;21206;-71
2021/01/03 02:00:15;;;;;;;185.88;108.50;;;;;;;4.71;80.48;100073.94;2802948;84;21190;-72
2021/01/03 02:04:34;;;;;;;159.87;104.32;;;;;;;4.75;80.27;100064.89;2804365;84;21633;-72
2021/01/03 02:08:51;;;;;;;171.28;101.45;;;;;;;4.67;80.15;100052.19;2768327;84;21218;-72
2021/01/03 02:13:22;;;;;;;176.27;101.50;;;;;;;4.59;80.47;100051.81;2732033;87;21170;-69
2021/01/03 02:17:25;;;;;;;164.20;102.05;;;;;;;4.56;80.48;100046.73;2770001;85;21144;-71
2021/01/03 02:21:48;;;;;;;180.30;97.55;;;;;;;4.54;80.84;100048.62;2738133;86;21625;-72
2021/01/03 02:25:53;;;;;;;166.75;93.95;;;;;;;4.52;80.83;100032.03;2734538;86;21185;-70
2021/01/03 02:29:57;;;;;;;168.43;99.90;;;;;;;4.49;80.96;100029.59;2777866;85;21182;-71
2021/01/03 02:34:05;;;;;;;181.12;105.15;;;;;;;4.50;81.09;100035.23;2727423;87;21194;-71
2021/01/03 02:38:08;;;;;;;172.37;97.95;;;;;;;4.55;81.48;100029.23;2755736;86;21140;-71
2021/01/03 02:42:16;;;;;;;173.93;97.60;;;;;;;4.57;81.11;100024.23;2755428;85;21726;-71
2021/01/03 02:46:20;;;;;;;170.97;100.65;;;;;;;4.61;81.11;100022.27;2755753;85;21598;-71
2021/01/03 02:50:25;;;;;;;192.75;105.83;;;;;;;4.64;81.17;100019.44;2755895;85;21196;-70
2021/01/03 02:54:28;;;;;;;153.90;95.90;;;;;;;4.63;81.21;100019.06;2778648;85;21181;-69
2021/01/03 02:58:31;;;;;;;182.40;98.85;;;;;;;4.58;81.33;100012.75;2777660;85;21121;-73
2021/01/03 03:02:33;;;;;;;182.93;105.50;;;;;;;4.48;81.33;100009.46;2777936;85;21204;-70
2021/01/03 03:06:36;;;;;;;169.65;99.13;;;;;;;4.39;81.68;100010.86;2777929;84;21208;-69
2021/01/03 03:10:39;;;;;;;195.30;104.63;;;;;;;4.27;82.10;100009.82;2776146;85;21172;-69
2021/01/03 03:14:42;;;;;;;171.00;97.20;;;;;;;4.25;82.56;100004.66;2776453;85;21622;-68
2021/01/03 03:18:47;;;;;;;185.97;102.07;;;;;;;4.21;82.59;100000.98;2776923;85;21176;-69
2021/01/03 03:22:51;;;;;;;185.70;99.60;;;;;;;4.17;82.95;99986.31;2776427;85;21626;-68
2021/01/03 03:26:58;;;;;;;190.68;98.33;;;;;;;4.13;83.14;99982.55;2776505;85;21105;-69
2021/01/03 03:31:01;;;;;;;181.43;103.35;;;;;;;4.13;83.35;99981.23;2776438;85;21196;-68
2021/01/03 03:35:08;;;;;;;174.25;96.67;;;;;;;4.13;83.86;99970.70;2776368;85;21189;-67
2021/01/03 03:39:12;;;;;;;178.23;105.87;;;;;;;4.12;84.17;99971.62;2777327;85;21607;-67
2021/01/03 03:47:50;;;;;;;167.85;93.87;;;;;;;4.19;84.28;99973.41;2849931;83;21129;-71
2021/01/03 03:52:00;;;;;;;162.18;89.70;;;;;;;4.28;84.63;99975.97;2850297;83;21093;-67
2021/01/03 03:56:31;;;;;;;151.47;91.20;;;;;;;4.35;84.56;99962.82;2802403;83;21093;-71
2021/01/03 04:00:33;;;;;;;161.80;91.72;;;;;;;4.34;84.71;99962.45;2826429;84;21115;-69
2021/01/03 04:05:12;;;;;;;140.80;81.12;;;;;;;4.33;84.84;99956.80;2826252;83;21135;-68
2021/01/03 04:09:15;;;;;;;151.65;85.12;;;;;;;4.34;84.68;99951.05;2828367;83;21597;-68
2021/01/03 04:13:55;;;;;;;139.07;83.78;;;;;;;4.29;84.87;99954.81;2829303;82;21584;-69
2021/01/03 04:17:58;;;;;;;156.43;82.25;;;;;;;4.31;85.09;99953.39;2828932;84;21616;-66
2021/01/03 04:22:04;;;;;;;161.25;83.52;;;;;;;4.28;85.06;99952.27;2829109;83;21186;-67
2021/01/03 04:30:41;;;;;;;145.65;74.92;;;;;;;4.20;85.74;99947.46;2829308;84;20140;-69
2021/01/03 04:35:22;;;;;;;132.70;74.32;;;;;;;4.09;85.67;99941.53;2818968;84;21166;-70
2021/01/03 04:39:28;;;;;;;122.98;70.22;;;;;;;4.00;85.83;99938.16;2822741;84;21212;-68
2021/01/03 04:43:32;;;;;;;125.12;69.25;;;;;;;3.95;86.22;99936.28;2822628;84;21174;-69
2021/01/03 04:48:04;;;;;;;115.10;70.47;;;;;;;3.91;86.61;99937.38;2822562;84;21194;-68
2021/01/03 04:52:34;;;;;;;119.55;73.72;;;;;;;3.93;86.71;99932.86;2794885;84;21178;-69
2021/01/03 04:56:44;;;;;;;116.25;68.55;;;;;;;3.93;87.15;99936.81;2822433;84;21154;-68
2021/01/03 05:01:19;;;;;;;112.62;66.97;;;;;;;3.88;87.19;99930.53;2822399;84;21218;-73
2021/01/03 05:05:32;;;;;;;115.00;67.10;;;;;;;3.85;87.06;99930.71;2822367;84;21492;-76
2021/01/03 05:09:35;;;;;;;119.53;68.37;;;;;;;3.82;87.48;99929.55;2815795;84;21181;-75
2021/01/03 05:13:46;;;;;;;109.50;66.57;;;;;;;3.80;87.54;99917.83;2814115;84;21200;-73
2021/01/03 05:17:49;;;;;;;101.95;63.92;;;;;;;3.80;87.93;99920.45;2814293;84;21178;-76
2021/01/03 05:21:55;;;;;;;105.92;61.18;;;;;;;3.83;88.17;99915.00;2814129;84;21190;-76
2021/01/03 05:25:58;;;;;;;98.97;59.23;;;;;;;3.86;87.93;99913.50;2814125;84;21170;-79
2021/01/03 05:30:19;;;;;;;106.43;63.65;;;;;;;3.88;87.91;99911.25;2814237;84;21146;-78
2021/01/03 05:34:36;;;;;;;91.75;55.58;;;;;;;3.93;88.34;99923.65;2813968;84;21134;-79
2021/01/03 05:38:42;;;;;;;99.85;60.30;;;;;;;3.94;87.95;99906.47;2814099;84;21166;-77
2021/01/03 05:42:46;;;;;;;91.82;56.98;;;;;;;3.94;87.89;99899.88;2814015;84;21207;-77
2021/01/03 05:47:00;;;;;;;93.97;56.55;;;;;;;4.00;88.06;99906.09;2813949;84;21178;-76
2021/01/03 05:51:46;;;;;;;113.17;58.68;;;;;;;4.05;87.87;99900.55;3116818;76;22893;-72
2021/01/03 05:56:02;;;;;;;99.72;55.60;;;;;;;4.00;87.92;99903.94;3064690;77;21125;-78
2021/01/03 06:00:26;;;;;;;107.87;60.10;;;;;;;4.02;88.31;99912.58;3064213;77;21109;-78
2021/01/03 06:04:29;;;;;;;91.02;53.68;;;;;;;4.07;88.66;99914.95;3009371;77;21775;-76
2021/01/03 06:08:36;;;;;;;80.20;54.03;;;;;;;4.06;88.19;99908.82;3009486;77;21112;-76
2021/01/03 06:12:39;;;;;;;99.25;56.35;;;;;;;4.06;87.88;99898.30;3009893;78;21096;-78
2021/01/03 06:16:46;;;;;;;98.52;58.15;;;;;;;4.10;88.00;99905.05;3009514;79;21132;-79
2021/01/03 06:20:49;;;;;;;88.70;58.90;;;;;;;4.20;88.54;99907.97;3009718;77;21108;-78
2021/01/03 06:24:52;;;;;;;87.82;52.17;;;;;;;4.25;88.23;99909.02;2981651;76;21156;-79
2021/01/03 06:28:58;;;;;;;94.50;53.80;;;;;;;4.27;87.68;99909.77;3059043;76;21121;-77
2021/01/03 06:33:32;;;;;;;95.05;51.23;;;;;;;4.30;88.09;99931.95;3064561;77;21081;-75
2021/01/03 06:37:52;;;;;;;79.80;51.68;;;;;;;4.34;88.11;99913.73;3016199;77;21138;-77
2021/01/03 06:42:06;;;;;;;85.30;51.98;;;;;;;4.35;88.28;99928.59;2973134;79;21075;-75
2021/01/03 06:46:54;;;;;;;82.50;51.58;;;;;;;4.43;88.58;99931.58;2948729;79;21500;-74
2021/01/03 06:51:34;;;;;;;89.03;53.23;;;;;;;4.50;88.95;99920.20;2969947;78;21147;-75
2021/01/03 06:56:32;;;;;;;89.30;51.45;;;;;;;4.60;88.79;99925.73;3050871;78;21119;-76
2021/01/03 07:00:49;;;;;;;86.08;52.85;;;;;;;4.63;88.39;99926.86;3043875;78;21170;-76
2021/01/03 07:04:52;;;;;;;82.47;50.52;;;;;;;4.70;88.63;99932.59;2989203;79;21608;-77
2021/01/03 07:08:55;;;;;;;73.67;48.17;;;;;;;4.66;87.03;99928.46;2973885;79;21149;-75
2021/01/03 07:12:58;;;;;;;86.85;55.70;;;;;;;4.59;85.86;99938.53;2977997;79;21644;-76
2021/01/03 07:17:16;;;;;;;95.47;58.40;;;;;;;4.46;85.96;99939.77;3008399;78;21897;-76
2021/01/03 07:21:28;;;;;;;81.15;55.78;;;;;;;4.51;87.83;99943.41;2979189;79;21145;-76
2021/01/03 07:25:52;;;;;;;79.07;50.03;;;;;;;4.60;88.05;99948.13;3116989;76;22854;-75
2021/01/03 07:30:12;;;;;;;86.82;51.63;;;;;;;4.55;87.83;99944.45;3047527;76;21137;-77
2021/01/03 07:34:28;;;;;;;79.82;47.43;;;;;;;4.52;87.89;99950.38;3035582;77;21114;-75
2021/01/03 07:38:32;;;;;;;77.47;52.07;;;;;;;4.46;87.45;99946.81;3019332;77;21124;-76
2021/01/03 07:42:51;;;;;;;90.60;53.87;;;;;;;4.48;87.89;99947.11;2997614;79;21108;-77
2021/01/03 07:46:57;;;;;;;96.65;49.93;;;;;;;4.46;87.81;99945.04;2956272;79;21168;-77
2021/01/03 07:51:01;;;;;;;99.35;57.80;;;;;;;4.40;87.92;99958.56;2882210;82;21450;-75
2021/01/03 07:55:13;;;;;;;70.40;47.70;;;;;;;4.31;87.78;99952.07;2860458;82;21217;-75
2021/01/03 07:59:17;;;;;;;113.72;65.85;;;;;;;4.29;87.96;99948.69;2881798;82;21148;-76
2021/01/03 08:03:24;;;;;;;114.67;68.02;;;;;;;4.29;87.91;99953.95;2862393;82;21192;-73
2021/01/03 08:07:29;;;;;;;141.62;96.82;;;;;;;4.32;88.03;99952.45;2877190;82;21156;-74
2021/01/03 08:11:41;;;;;;;124.07;79.45;;;;;;;4.35;88.19;99948.34;2851488;82;22227;-73
2021/01/03 08:15:45;;;;;;;93.17;69.10;;;;;;;4.40;88.25;99953.30;2851424;82;21465;-73
2021/01/03 08:19:49;;;;;;;183.45;129.75;;;;;;;4.42;88.70;99952.73;2851984;83;21160;-72
2021/01/03 08:24:03;;;;;;;222.80;154.72;;;;;;;4.42;88.51;99949.64;2842800;83;21765;-73
2021/01/03 08:28:22;;;;;;;226.22;130.07;;;;;;;4.40;88.20;99944.94;2833457;84;21156;-73
2021/01/03 08:32:29;;;;;;;266.50;148.90;;;;;;;4.43;88.42;99950.02;2845173;81;21658;-75
2021/01/03 08:36:37;;;;;;;156.02;94.83;;;;;;;4.40;88.55;99942.31;2880774;82;21470;-75
2021/01/03 08:40:46;;;;;;;207.52;115.20;;;;;;;4.35;88.16;99947.02;2880687;82;21153;-74
2021/01/03 08:44:53;;;;;;;201.70;110.92;;;;;;;4.26;88.14;99937.03;2865765;81;21131;-72
2021/01/03 08:49:06;;;;;;;210.02;115.72;;;;;;;4.19;88.22;99937.05;2883583;81;21160;-73
2021/01/03 08:53:20;;;;;;;112.92;74.27;;;;;;;4.17;88.66;99938.92;2863052;82;21119;-76
2021/01/03 08:57:24;;;;;;;124.47;76.20;;;;;;;4.14;88.90;99938.63;2859186;83;21160;-75
2021/01/03 09:01:33;;;;;;;161.35;97.57;;;;;;;4.13;89.15;99935.17;2860042;81;21554;-75
2021/01/03 09:05:37;;;;;;;142.90;88.35;;;;;;;4.18;89.26;99926.14;2874220;81;21140;-76
2021/01/03 09:09:47;;;;;;;127.32;75.92;;;;;;;4.16;89.03;99918.80;2862847;81;21124;-74
2021/01/03 09:14:04;;;;;;;135.28;87.00;;;;;;;4.14;89.03;99917.11;2891842;80;21900;-72
2021/01/03 09:18:24;;;;;;;102.75;61.77;;;;;;;4.16;89.29;99917.00;2878376;80;21562;-77
2021/01/03 09:22:36;;;;;;;104.00;66.97;;;;;;;4.14;89.52;99914.48;2901091;80;21563;-74
2021/01/03 09:26:41;;;;;;;88.17;56.33;;;;;;;4.21;89.79;99924.63;2863631;82;21160;-76
2021/01/03 09:30:44;;;;;;;81.08;52.78;;;;;;;4.25;89.61;99926.13;2857153;80;21462;-76
2021/01/03 09:35:03;;;;;;;74.87;49.83;;;;;;;4.24;89.59;99921.80;2889839;82;21133;-76
2021/01/03 09:39:37;;;;;;;79.85;54.65;;;;;;;4.24;89.57;99917.40;2895202;82;21181;-75
2021/01/03 09:44:20;;;;;;;72.12;49.00;;;;;;;4.25;89.85;99920.41;2802392;83;21105;-75
2021/01/03 09:48:37;;;;;;;85.77;49.25;;;;;;;4.28;89.87;99911.45;2901397;82;21096;-75
2021/01/03 09:53:05;;;;;;;77.45;50.45;;;;;;;4.34;89.83;99906.28;2876424;80;21113;-75
2021/01/03 09:57:22;;;;;;;76.25;49.10;;;;;;;4.35;89.83;99894.35;2893918;82;21144;-75
2021/01/03 10:01:32;;;;;;;87.17;55.52;;;;;;;4.42;90.13;99889.52;2863009;80;21148;-75
2021/01/03 10:05:38;;;;;;;92.35;59.33;;;;;;;4.53;90.23;99891.52;2871212;82;21152;-75
2021/01/03 10:10:03;;;;;;;118.50;70.30;;;;;;;4.62;90.14;99898.81;2854426;82;21109;-75
2021/01/03 10:14:11;;;;;;;92.27;54.45;;;;;;;4.74;90.32;99897.68;2861183;80;21141;-76
2021/01/03 10:18:15;;;;;;;108.15;64.27;;;;;;;4.84;90.44;99881.63;2895903;81;21141;-75
2021/01/03 10:22:42;;;;;;;130.12;73.67;;;;;;;4.96;90.20;99879.53;2868723;80;21185;-74
2021/01/03 10:27:09;;;;;;;130.27;70.47;;;;;;;5.10;90.50;99886.53;2883083;80;21121;-75
2021/01/03 10:31:12;;;;;;;91.03;55.23;;;;;;;5.19;90.03;99878.50;2889646;80;21152;-75
2021/01/03 10:35:15;;;;;;;107.70;67.00;;;;;;;5.26;89.69;99871.86;2889139;82;21610;-76
2021/01/03 10:39:18;;;;;;;134.63;73.55;;;;;;;5.35;89.64;99862.98;2875838;80;21147;-76
2021/01/03 10:43:21;;;;;;;106.25;59.50;;;;;;;5.39;89.70;99862.64;2877022;80;21192;-74
2021/01/03 10:47:23;;;;;;;76.42;51.55;;;;;;;5.39;89.59;99867.09;2875821;82;21171;-75
2021/01/03 10:51:38;;;;;;;142.47;89.67;;;;;;;5.36;89.17;99865.98;2870536;80;21125;-73
2021/01/03 10:55:41;;;;;;;84.77;49.65;;;;;;;5.30;89.21;99879.10;2870979;81;21144;-68
2021/01/03 10:59:44;;;;;;;93.82;63.80;;;;;;;5.34;89.40;99873.16;2875826;82;21140;-73
2021/01/03 11:03:47;;;;;;;99.40;67.67;;;;;;;5.34;89.17;99865.25;2891066;80;21141;-73
2021/01/03 11:07:52;;;;;;;87.37;56.08;;;;;;;5.34;89.29;99864.76;2879951;80;21169;-76
2021/01/03 11:12:16;;;;;;;78.17;49.58;;;;;;;5.37;89.23;99863.23;2884287;80;21173;-75
2021/01/03 11:16:19;;;;;;;71.60;48.30;;;;;;;5.44;89.52;99855.75;2885622;80;21129;-76
2021/01/03 11:20:22;;;;;;;76.20;50.10;;;;;;;5.50;89.30;99852.72;2878227;82;21132;-78
2021/01/03 11:24:26;;;;;;;81.82;61.75;;;;;;;5.52;89.39;99854.78;2857724;81;21144;-75
2021/01/03 11:28:29;;;;;;;95.05;57.58;;;;;;;5.62;89.45;99856.77;2890704;80;21623;-74
2021/01/03 11:32:32;;;;;;;78.28;50.95;;;;;;;5.63;89.58;99851.41;2863200;81;21148;-76
2021/01/03 11:36:36;;;;;;;92.95;52.50;;;;;;;5.61;89.42;99848.48;2863214;83;21164;-78
2021/01/03 11:40:40;;;;;;;81.80;54.77;;;;;;;5.62;89.56;99840.94;2881105;80;21591;-73
2021/01/03 11:44:45;;;;;;;74.95;49.75;;;;;;;5.61;89.33;99837.48;2887612;80;21160;-76
2021/01/03 11:48:49;;;;;;;78.10;53.68;;;;;;;5.62;89.65;99828.61;2863421;83;21445;-78
2021/01/03 11:52:52;;;;;;;74.42;51.13;;;;;;;5.64;89.56;99830.66;2863199;83;21121;-71
2021/01/03 11:56:59;;;;;;;82.80;55.70;;;;;;;5.58;89.30;99824.00;2863404;83;21164;-73
2021/01/03 12:01:03;;;;;;;86.40;57.98;;;;;;;5.51;89.39;99817.47;2863420;83;21124;-74
2021/01/03 12:05:08;;;;;;;81.55;52.98;;;;;;;5.48;89.61;99811.06;2862986;83;21583;-74
2021/01/03 12:09:11;;;;;;;74.58;51.95;;;;;;;5.49;89.89;99815.39;2863179;83;21168;-75
2021/01/03 12:13:14;;;;;;;72.47;47.40;;;;;;;5.54;90.04;99817.72;2863600;81;21148;-77
2021/01/03 12:17:22;;;;;;;67.03;45.90;;;;;;;5.61;90.14;99830.02;2875534;80;21093;-77
2021/01/03 12:21:32;;;;;;;81.97;55.58;;;;;;;5.74;90.11;99832.66;2886435;80;21160;-78
2021/01/03 12:25:36;;;;;;;78.78;56.48;;;;;;;5.79;89.51;99846.38;2890415;80;21176;-76
2021/01/03 12:29:40;;;;;;;82.42;50.60;;;;;;;5.84;89.52;99841.15;2874751;82;21172;-77
2021/01/03 12:33:43;;;;;;;75.78;52.23;;;;;;;5.92;89.36;99852.99;2854444;83;21172;-74
2021/01/03 12:37:46;;;;;;;74.07;56.60;;;;;;;5.92;88.26;99863.55;2868603;80;21172;-77
2021/01/03 12:41:52;;;;;;;75.73;50.40;;;;;;;5.92;88.24;99866.19;2879777;80;21136;-74
2021/01/03 12:45:55;;;;;;;80.17;51.40;;;;;;;5.95;88.09;99865.97;2874834;80;21165;-74
2021/01/03 12:49:59;;;;;;;97.70;64.53;;;;;;;5.96;88.13;99873.77;2881867;80;21124;-79
2021/01/03 12:54:06;;;;;;;72.85;44.10;;;;;;;6.06;88.77;99863.94;2877338;80;21168;-78
2021/01/03 12:58:09;;;;;;;64.72;41.23;;;;;;;6.15;88.79;99843.47;2867605;82;21117;-78
2021/01/03 13:02:12;;;;;;;64.30;44.45;;;;;;;6.14;88.42;99834.72;2863458;80;21192;-78
2021/01/03 13:06:17;;;;;;;56.23;39.20;;;;;;;6.11;87.97;99832.30;2871769;80;21125;-78
2021/01/03 13:10:20;;;;;;;59.55;42.67;;;;;;;5.98;87.69;99834.91;2876143;80;21113;-76
2021/01/03 13:14:23;;;;;;;62.55;40.08;;;;;;;5.86;87.99;99837.09;2886725;80;21146;-71
2021/01/03 13:18:26;;;;;;;64.75;46.40;;;;;;;5.81;88.42;99844.01;2875055;80;21133;-73
2021/01/03 13:22:28;;;;;;;63.63;40.90;;;;;;;5.77;88.52;99847.81;2872824;80;21152;-77
2021/01/03 13:26:31;;;;;;;65.22;45.33;;;;;;;5.75;88.61;99849.72;2885172;80;21140;-76
2021/01/03 13:30:34;;;;;;;69.75;46.58;;;;;;;5.76;88.56;99850.09;2890920;80;21546;-74
2021/01/03 13:34:37;;;;;;;69.35;45.45;;;;;;;5.79;88.65;99845.91;2836806;83;21156;-74
2021/01/03 13:38:40;;;;;;;64.60;46.40;;;;;;;5.85;88.59;99848.12;2863529;83;21129;-73
2021/01/03 13:42:43;;;;;;;65.32;44.53;;;;;;;5.90;88.63;99854.90;2876543;80;21163;-78
2021/01/03 13:46:54;;;;;;;88.62;57.70;;;;;;;5.92;88.43;99855.63;2886295;81;21645;-75
2021/01/03 13:50:57;;;;;;;70.65;47.73;;;;;;;5.94;88.53;99869.56;2891742;80;21151;-75
2021/01/03 13:55:00;;;;;;;152.02;87.05;;;;;;;5.97;88.24;99868.03;2895518;80;21152;-76
2021/01/03 13:59:03;;;;;;;137.68;81.37;;;;;;;6.00;88.49;99871.31;2888012;80;21458;-75
2021/01/03 14:03:06;;;;;;;237.12;125.87;;;;;;;6.09;88.66;99876.46;2892624;80;21144;-76
2021/01/03 14:07:10;;;;;;;215.03;111.20;;;;;;;6.20;88.49;99879.67;2877804;80;21171;-75
2021/01/03 14:11:23;;;;;;;170.40;95.50;;;;;;;6.32;88.61;99879.74;2890579;80;21112;-76
2021/01/03 14:15:26;;;;;;;95.95;56.95;;;;;;;6.47;89.16;99876.48;2888352;80;21152;-76
2021/01/03 14:19:29;;;;;;;70.20;46.28;;;;;;;6.56;88.48;99881.13;2897718;81;21160;-74
2021/01/03 14:23:32;;;;;;;64.00;43.42;;;;;;;6.53;87.30;99889.28;2886465;80;22234;-75
2021/01/03 14:27:36;;;;;;;64.12;44.42;;;;;;;6.47;86.96;99888.38;2884684;80;21148;-75
2021/01/03 14:31:40;;;;;;;74.20;47.90;;;;;;;6.44;86.69;99893.42;2874711;82;21109;-74
2021/01/03 14:35:51;;;;;;;56.28;36.20;;;;;;;6.41;86.74;99894.47;2878680;80;21156;-75
2021/01/03 14:40:02;;;;;;;59.67;37.78;;;;;;;6.34;86.30;99897.64;2878392;80;21133;-75
2021/01/03 14:44:06;;;;;;;63.38;42.13;;;;;;;6.26;86.43;99901.68;2883053;80;21107;-75
2021/01/03 14:48:20;;;;;;;63.80;39.55;;;;;;;6.24;86.89;99904.05;2877700;80;21164;-75
2021/01/03 14:52:57;;;;;;;68.55;44.58;;;;;;;6.20;86.53;99895.98;2875778;80;21172;-76
2021/01/03 14:57:11;;;;;;;65.28;40.85;;;;;;;6.13;86.19;99901.70;2883636;80;21168;-74
2021/01/03 15:01:35;;;;;;;66.37;42.45;;;;;;;5.99;86.11;99901.77;2892812;80;21141;-74
2021/01/03 15:05:47;;;;;;;86.60;50.67;;;;;;;5.90;86.23;99905.05;2894133;82;21172;-74
2021/01/03 15:09:53;;;;;;;63.92;41.63;;;;;;;5.82;86.69;99902.94;2887598;82;21611;-75
2021/01/03 15:13:56;;;;;;;;;;;;;;;5.72;86.60;99900.08;2879389;82;21176;-75
2021/01/03 15:18:03;;;;;;;76.85;45.00;;;;;;;5.64;86.95;99906.33;2878931;80;20159;-75
2021/01/03 15:22:11;;;;;;;100.87;61.60;;;;;;;5.57;87.18;99908.07;2890202;82;21144;-75
2021/01/03 15:26:25;;;;;;;95.10;56.15;;;;;;;5.54;87.69;99913.56;2863085;81;21171;-75
2021/01/03 15:30:50;;;;;;;77.85;48.20;;;;;;;5.52;87.78;99909.32;2910364;81;21666;-75
2021/01/03 15:35:09;;;;;;;84.58;49.25;;;;;;;5.49;87.88;99916.95;2901106;81;21622;-77
2021/01/03 15:39:12;;;;;;;72.75;47.27;;;;;;;5.47;87.80;99917.53;2884731;81;21175;-76
2021/01/03 15:43:40;;;;;;;63.40;41.88;;;;;;;5.48;87.62;99917.91;2889698;81;21195;-75
2021/01/03 15:47:47;;;;;;;72.08;48.75;;;;;;;5.45;87.66;99916.80;2895592;80;21144;-75
2021/01/03 15:51:54;;;;;;;91.28;56.25;;;;;;;5.44;87.88;99915.11;2885535;81;21132;-75
2021/01/03 15:55:57;;;;;;;;;;;;;;;5.43;87.98;99918.69;2886389;80;21134;-74
2021/01/03 16:00:00;;;;;;;67.90;46.88;;;;;;;5.42;88.13;99922.28;2873090;80;20155;-74
2021/01/03 16:04:05;;;;;;;71.95;46.68;;;;;;;5.37;87.89;99920.43;2886107;80;21550;-77
2021/01/03 16:08:07;;;;;;;69.85;45.43;;;;;;;5.37;87.97;99927.02;2885777;81;21189;-76
2021/01/03 16:12:10;;;;;;;82.75;47.10;;;;;;;5.33;87.94;99929.50;2913351;81;21144;-76
2021/01/03 16:16:14;;;;;;;142.15;77.97;;;;;;;5.30;88.19;99925.25;2891421;81;21175;-76
2021/01/03 16:20:20;;;;;;;141.35;75.45;;;;;;;5.26;88.15;99914.55;2863324;83;21148;-76
2021/01/03 16:24:24;;;;;;;106.70;63.50;;;;;;;5.28;88.52;99923.20;2863588;83;21140;-76
2021/01/03 16:29:09;;;;;;;93.78;57.80;;;;;;;5.26;88.59;99925.09;2873445;80;21100;-75
2021/01/03 16:33:43;;;;;;;114.32;64.82;;;;;;;5.22;88.53;99919.16;2887754;81;21088;-76
2021/01/03 16:38:13;;;;;;;131.25;72.45;;;;;;;5.19;88.56;99919.37;2870036;81;21156;-76
2021/01/03 16:42:40;;;;;;;140.40;78.72;;;;;;;5.21;88.79;99914.84;2863520;83;21120;-76
2021/01/03 16:47:12;;;;;;;148.40;77.70;;;;;;;5.24;88.81;99927.81;2863509;83;21144;-76
2021/01/03 16:51:20;;;;;;;93.87;55.12;;;;;;;5.23;88.85;99927.44;2909173;81;21120;-76
2021/01/03 16:55:48;;;;;;;123.90;75.55;;;;;;;5.22;89.09;99931.03;2913435;80;21121;-76
2021/01/03 16:59:59;;;;;;;114.35;65.15;;;;;;;5.27;89.06;99930.25;2863596;81;21217;-76
2021/01/03 17:04:06;;;;;;;117.77;71.07;;;;;;;5.28;88.80;99934.58;2880439;80;21567;-76
2021/01/03 17:08:34;;;;;;;79.72;49.58;;;;;;;5.27;88.60;99944.75;2889288;81;21216;-76
2021/01/03 17:13:08;;;;;;;78.87;47.67;;;;;;;5.32;88.54;99935.72;2880803;81;21140;-76
2021/01/03 17:17:25;;;;;;;86.57;52.33;;;;;;;5.35;88.18;99939.47;2884514;81;21140;-79
2021/01/03 17:21:36;;;;;;;92.75;51.63;;;;;;;5.33;88.15;99947.47;2881126;81;21112;-75
2021/01/03 17:26:00;;;;;;;100.02;56.25;;;;;;;5.32;88.24;99944.95;2878918;80;21199;-76
2021/01/03 17:30:27;;;;;;;107.27;57.05;;;;;;;5.32;88.03;99947.59;2879993;81;21148;-75
2021/01/03 17:35:01;;;;;;;102.70;58.65;;;;;;;5.30;88.46;99947.67;2868032;81;22271;-75
2021/01/03 17:39:06;;;;;;;75.20;47.53;;;;;;;5.32;88.38;99944.95;2886285;80;21135;-77
2021/01/03 17:43:09;;;;;;;75.47;49.05;;;;;;;5.31;88.27;99942.77;2870434;80;21180;-76
2021/01/03 17:47:34;;;;;;;95.40;55.67;;;;;;;5.31;88.14;99944.58;2889434;80;21124;-78
2021/01/03 17:51:42;;;;;;;80.25;49.00;;;;;;;5.33;88.18;99944.83;2891722;80;21140;-77
2021/01/03 17:55:45;;;;;;;87.37;51.40;;;;;;;5.31;88.12;99936.67;2882344;80;21144;-77
2021/01/03 17:59:48;;;;;;;82.72;48.52;;;;;;;5.31;88.15;99941.45;2878950;80;21184;-77
2021/01/03 18:03:51;;;;;;;74.45;47.75;;;;;;;5.31;88.10;99939.30;2885282;80;21136;-77
2021/01/03 18:07:55;;;;;;;87.42;52.60;;;;;;;5.29;88.11;99942.03;2885132;80;21164;-77
2021/01/03 18:11:58;;;;;;;89.97;49.80;;;;;;;5.31;87.95;99944.58;2891414;80;21088;-77
2021/01/03 18:16:01;;;;;;;107.47;59.03;;;;;;;5.26;87.95;99943.06;2880913;80;21152;-77
2021/01/03 18:20:08;;;;;;;85.03;53.33;;;;;;;5.24;88.05;99948.09;2849758;80;21112;-77
2021/01/03 18:24:17;;;;;;;92.02;51.35;;;;;;;5.23;87.92;99947.22;2863483;83;21164;-73
2021/01/03 18:28:20;;;;;;;91.65;51.80;;;;;;;5.23;87.81;99943.27;2876470;80;21192;-75
2021/01/03 18:32:22;;;;;;;94.67;54.00;;;;;;;5.19;87.74;99945.73;2880024;80;21116;-75
2021/01/03 18:36:27;;;;;;;106.85;57.75;;;;;;;5.17;88.38;99950.27;2884544;80;21137;-75
2021/01/03 18:40:33;;;;;;;109.80;58.17;;;;;;;5.17;88.35;99956.86;2868202;80;21187;-75
2021/01/03 18:44:37;;;;;;;97.82;57.17;;;;;;;5.18;88.50;99959.87;2875092;80;21632;-74
2021/01/03 18:48:41;;;;;;;111.05;60.00;;;;;;;5.14;88.46;99955.75;2881725;81;21149;-75
2021/01/03 18:52:46;;;;;;;107.03;63.08;;;;;;;5.22;88.78;99953.94;2903965;80;21105;-75
2021/01/03 18:56:49;;;;;;;118.08;69.90;;;;;;;5.25;88.71;99965.59;2877659;80;21144;-74
2021/01/03 19:00:52;;;;;;;107.83;60.28;;;;;;;5.23;88.49;99968.32;2884520;80;21124;-75
2021/01/03 19:04:55;;;;;;;117.25;63.33;;;;;;;5.21;88.82;99968.89;2895452;80;21646;-75
2021/01/03 19:08:58;;;;;;;109.87;62.27;;;;;;;5.23;88.50;99967.00;2875781;80;21160;-75
2021/01/03 19:13:00;;;;;;;115.70;59.33;;;;;;;5.25;88.33;99968.23;2903740;81;21105;-75
2021/01/03 19:17:09;;;;;;;98.58;59.73;;;;;;;5.26;88.12;99977.84;2885711;80;21143;-75
2021/01/03 19:21:19;;;;;;;112.72;62.58;;;;;;;5.24;88.10;99977.09;2885906;80;21156;-75